Time;durP1;ratioP1;P1;durP2;ratioP2;P2;SDS_P1;SDS_P2;PMS_P1;PMS_P2;Temp;Humidity;BMP_temperature;BMP_pressure;BME280_temperature;BME280_humidity;BME280_pressure;Samples;Min_cycle;Max_cycle;Signal;HPM_P1;HPM_P2
2023/04/09 00:01:42;;;;;;;46.08;30.67;;;;;;;1.56;100.00;100929.44;10523614;28;20067;-80
2023/04/09 00:06:43;;;;;;;40.22;29.88;;;;;;;1.26;100.00;100925.38;10560130;28;20420;-80
2023/04/09 00:11:45;;;;;;;40.83;30.98;;;;;;;1.44;100.00;100927.47;10538745;28;20040;-80
2023/04/09 00:16:47;;;;;;;42.15;29.55;;;;;;;1.25;100.00;100921.06;10560045;28;20048;-79
2023/04/09 00:21:49;;;;;;;43.00;30.52;;;;;;;0.99;100.00;100929.16;10558430;28;20161;-80
2023/04/09 00:26:52;;;;;;;39.97;30.58;;;;;;;0.84;100.00;100939.19;10559503;28;20052;-78
2023/04/09 00:31:54;;;;;;;41.65;30.92;;;;;;;1.05;100.00;100935.28;10557839;28;20046;-79
2023/04/09 00:36:55;;;;;;;44.42;30.63;;;;;;;1.40;100.00;100925.66;10540734;28;20139;-78
2023/04/09 00:42:01;;;;;;;40.72;29.38;;;;;;;1.15;100.00;100924.28;10566487;28;20048;-79
2023/04/09 00:47:03;;;;;;;38.85;30.13;;;;;;;1.08;100.00;100912.06;10566235;28;20046;-80
2023/04/09 00:52:06;;;;;;;43.50;30.70;;;;;;;0.85;100.00;100916.75;10562762;28;20039;-81
2023/04/09 00:57:10;;;;;;;41.75;31.70;;;;;;;0.86;100.00;100926.28;10564855;28;20066;-79
2023/04/09 01:02:11;;;;;;;44.92;31.83;;;;;;;0.70;100.00;100925.03;10564507;28;20036;-81
2023/04/09 01:07:52;;;;;;;49.33;32.58;;;;;;;1.06;100.00;100926.69;10563009;28;20052;-80
2023/04/09 01:13:27;;;;;;;45.78;30.83;;;;;;;0.92;100.00;100923.81;10547389;28;20050;-78
2023/04/09 01:18:38;;;;;;;42.22;31.48;;;;;;;0.93;100.00;100929.03;10545202;28;20086;-81
2023/04/09 01:23:57;;;;;;;52.40;32.63;;;;;;;0.68;100.00;100940.53;10547322;28;20051;-81
2023/04/09 01:29:06;;;;;;;49.30;34.42;;;;;;;0.72;100.00;100936.31;10548345;28;20064;-80
2023/04/09 01:34:10;;;;;;;51.78;32.72;;;;;;;1.06;100.00;100926.69;10546721;28;20486;-80
2023/04/09 01:39:12;;;;;;;54.55;34.45;;;;;;;1.36;100.00;100934.22;10544194;28;20075;-80
2023/04/09 01:44:15;;;;;;;51.00;33.92;;;;;;;1.17;100.00;100945.91;10547668;28;20481;-78
2023/04/09 01:49:17;;;;;;;42.60;32.60;;;;;;;0.91;100.00;100941.06;10564274;28;20051;-80
2023/04/09 01:54:19;;;;;;;46.65;32.22;;;;;;;0.85;100.00;100929.69;10547164;28;20036;-80
2023/04/09 01:59:21;;;;;;;43.45;31.98;;;;;;;1.02;100.00;100938.72;10529094;28;20058;-80
2023/04/09 02:04:31;;;;;;;51.15;33.72;;;;;;;0.83;100.00;100960.72;10564986;28;20051;-80
2023/04/09 02:09:36;;;;;;;49.58;33.30;;;;;;;0.97;100.00;100948.97;10528697;28;20044;-79
2023/04/09 02:14:39;;;;;;;47.60;31.95;;;;;;;1.08;100.00;100948.31;10528080;28;20036;-79
2023/04/09 02:19:43;;;;;;;45.35;31.10;;;;;;;0.82;100.00;100945.16;10562704;28;20051;-79
2023/04/09 02:24:45;;;;;;;44.40;31.63;;;;;;;0.83;100.00;100950.34;10542025;28;20072;-80
2023/04/09 02:29:47;;;;;;;46.28;33.28;;;;;;;0.53;100.00;100945.34;10543186;28;20130;-79
2023/04/09 02:34:49;;;;;;;47.83;32.20;;;;;;;0.90;100.00;100953.97;10544796;28;20048;-79
2023/04/09 02:39:51;;;;;;;48.13;31.95;;;;;;;0.73;100.00;100953.59;10531243;28;20058;-79
2023/04/09 02:44:52;;;;;;;45.95;31.38;;;;;;;0.48;100.00;100953.00;10546401;28;20071;-80
2023/04/09 02:49:58;;;;;;;49.90;32.90;;;;;;;0.73;100.00;100953.59;10547276;28;20131;-80
2023/04/09 02:55:01;;;;;;;41.00;29.25;;;;;;;0.45;100.00;100942.59;10545112;28;20064;-81
2023/04/09 03:00:04;;;;;;;43.03;31.95;;;;;;;0.77;100.00;100951.94;10542684;28;20055;-80
2023/04/09 03:05:06;;;;;;;46.15;31.60;;;;;;;0.34;100.00;100951.81;10544509;28;20059;-80
2023/04/09 03:10:09;;;;;;;41.33;30.67;;;;;;;0.25;100.00;100965.38;10545654;28;20044;-80
2023/04/09 03:15:10;;;;;;;43.70;31.77;;;;;;;0.25;100.00;100967.97;10544541;28;20059;-80
2023/04/09 03:20:12;;;;;;;38.65;29.85;;;;;;;0.69;100.00;100964.69;10564296;28;20447;-80
2023/04/09 03:25:14;;;;;;;45.28;30.77;;;;;;;0.66;100.00;100957.72;10543338;28;20130;-80
2023/04/09 03:30:16;;;;;;;39.38;29.85;;;;;;;0.79;100.00;100950.25;10543766;28;20040;-80
2023/04/09 03:35:19;;;;;;;47.50;31.52;;;;;;;0.50;100.00;100945.28;10561905;28;20048;-81
2023/04/09 03:40:21;;;;;;;49.17;32.47;;;;;;;0.61;100.00;100949.00;10547490;28;20119;-79
2023/04/09 03:45:23;;;;;;;47.05;32.38;;;;;;;0.34;100.00;100946.63;10564209;28;20517;-80
2023/04/09 03:50:29;;;;;;;53.50;34.15;;;;;;;0.28;100.00;100946.50;10546206;28;20045;-81
2023/04/09 03:55:30;;;;;;;45.10;31.30;;;;;;;0.38;100.00;100952.75;10527428;28;20082;-80
2023/04/09 04:00:36;;;;;;;49.85;33.13;;;;;;;0.50;100.00;100950.47;10542343;28;20052;-81
2023/04/09 04:06:02;;;;;;;48.58;33.92;;;;;;;0.85;100.00;100948.69;10546349;28;20072;-80
2023/04/09 04:11:15;;;;;;;41.40;31.42;;;;;;;0.74;100.00;100950.16;10542802;28;20046;-80
2023/04/09 04:16:16;;;;;;;47.40;33.47;;;;;;;0.79;100.00;100947.66;10544800;28;20084;-80
2023/04/09 04:21:18;;;;;;;52.75;33.75;;;;;;;0.83;100.00;100944.31;10543328;28;20044;-79
2023/04/09 04:26:29;;;;;;;41.67;31.38;;;;;;;1.29;100.00;100942.72;10544159;28;20048;-79
2023/04/09 04:31:31;;;;;;;41.10;30.70;;;;;;;1.07;100.00;100949.16;10543746;28;20067;-80
2023/04/09 04:36:35;;;;;;;39.78;29.98;;;;;;;0.88;100.00;100950.44;10524112;28;20149;-80
2023/04/09 04:41:38;;;;;;;44.08;32.75;;;;;;;0.87;100.00;100957.34;10539821;28;20054;-81
2023/04/09 04:46:48;;;;;;;50.88;33.17;;;;;;;1.00;100.00;100966.25;10539678;28;20062;-80
2023/04/09 04:51:50;;;;;;;50.15;33.60;;;;;;;1.26;100.00;100966.81;10522057;28;20111;-81
2023/04/09 04:56:52;;;;;;;61.63;36.92;;;;;;;1.15;100.00;100968.31;10539810;28;20040;-80
2023/04/09 05:02:11;;;;;;;55.33;36.13;;;;;;;1.30;100.00;100958.28;10540093;28;20048;-80
2023/04/09 05:07:33;;;;;;;60.40;38.05;;;;;;;1.12;100.00;100966.53;10514148;28;20048;-81
2023/04/09 05:12:36;;;;;;;69.28;38.38;;;;;;;1.12;100.00;100963.94;10541619;28;20040;-80
2023/04/09 05:17:41;;;;;;;58.75;38.15;;;;;;;1.36;100.00;100973.06;10557301;28;20040;-81
2023/04/09 05:22:44;;;;;;;56.92;36.03;;;;;;;1.43;100.00;100974.94;10542975;28;20059;-82
2023/04/09 05:27:46;;;;;;;73.93;40.60;;;;;;;1.35;100.00;100972.19;10548291;28;20040;-81
2023/04/09 05:32:48;;;;;;;62.90;39.28;;;;;;;1.50;100.00;100977.66;10566957;28;20386;-81
2023/04/09 05:37:51;;;;;;;49.60;35.03;;;;;;;1.67;100.00;100985.78;10564688;28;20040;-79
2023/04/09 05:42:53;;;;;;;57.75;37.33;;;;;;;1.67;100.00;100975.41;10531867;28;20040;-79
2023/04/09 05:48:05;;;;;;;67.68;40.97;;;;;;;1.85;100.00;100979.22;10532633;28;20051;-79
2023/04/09 05:53:07;;;;;;;57.33;38.10;;;;;;;2.14;100.00;100985.81;10549184;28;20048;-79
2023/04/09 05:58:14;;;;;;;46.13;33.75;;;;;;;2.93;100.00;101000.94;10530500;28;20101;-80
2023/04/09 06:03:16;;;;;;;45.00;32.53;;;;;;;3.16;100.00;100991.72;10542387;28;20048;-81
2023/04/09 06:08:18;;;;;;;42.03;32.70;;;;;;;4.10;100.00;100987.63;10540151;28;20383;-78
2023/04/09 06:13:20;;;;;;;31.80;28.52;;;;;;;4.57;97.29;100984.59;10521428;28;20040;-79
2023/04/09 06:18:22;;;;;;;31.92;28.67;;;;;;;4.77;93.37;100978.63;10541750;28;20390;-80
2023/04/09 06:23:24;;;;;;;41.97;31.10;;;;;;;5.09;92.09;100964.97;10541563;28;20040;-80
2023/04/09 06:28:27;;;;;;;30.85;28.05;;;;;;;5.72;90.01;100967.84;10526666;28;20051;-81
2023/04/09 06:33:29;;;;;;;47.92;36.90;;;;;;;5.54;90.68;100966.91;10560180;28;20401;-80
2023/04/09 06:38:31;;;;;;;34.15;30.58;;;;;;;5.55;91.74;100978.19;10560796;28;20047;-79
2023/04/09 06:43:33;;;;;;;33.72;28.17;;;;;;;5.81;90.04;100978.28;10541827;28;20036;-82
2023/04/09 06:48:35;;;;;;;38.72;30.75;;;;;;;5.50;89.65;100982.53;10543559;28;20074;-80
2023/04/09 06:53:38;;;;;;;36.97;31.50;;;;;;;5.42;93.37;100982.50;10561006;28;20040;-80
2023/04/09 06:58:40;;;;;;;39.60;32.33;;;;;;;5.38;92.82;100993.78;10559952;28;20101;-81
2023/04/09 07:03:42;;;;;;;42.63;33.65;;;;;;;5.46;94.63;100988.59;10521807;28;20074;-79
2023/04/09 07:08:44;;;;;;;38.78;32.17;;;;;;;5.41;95.55;100992.94;10559069;28;20052;-78
2023/04/09 07:13:45;;;;;;;40.17;33.97;;;;;;;5.61;94.04;100987.78;10554515;28;20539;-79
2023/04/09 07:18:47;;;;;;;43.80;36.42;;;;;;;5.62;93.00;100989.50;10540179;28;20040;-79
2023/04/09 07:23:49;;;;;;;44.92;36.67;;;;;;;5.90;92.21;100993.09;10559769;28;20036;-80
2023/04/09 07:28:52;;;;;;;39.80;33.30;;;;;;;6.09;89.83;100994.03;10559327;28;20044;-79
2023/04/09 07:33:53;;;;;;;43.30;34.67;;;;;;;6.25;89.69;101004.53;10558933;28;20119;-81
2023/04/09 07:38:55;;;;;;;39.45;34.25;;;;;;;6.35;88.46;100992.34;10558599;28;20070;-81
2023/04/09 07:43:58;;;;;;;41.72;33.88;;;;;;;6.06;88.31;100995.78;10541443;28;20111;-79
2023/04/09 07:48:59;;;;;;;36.83;32.90;;;;;;;6.33;89.71;100994.09;10538340;28;20044;-80
2023/04/09 07:54:01;;;;;;;35.47;31.48;;;;;;;6.74;85.90;100996.69;10538866;28;20067;-80
2023/04/09 07:59:03;;;;;;;34.08;30.50;;;;;;;7.53;77.96;100997.41;10556285;28;20050;-80
2023/04/09 08:04:05;;;;;;;35.20;30.95;;;;;;;7.12;81.61;100998.38;10539837;28;20054;-80
2023/04/09 08:09:07;;;;;;;33.25;30.00;;;;;;;7.08;78.04;101000.16;10541766;28;20039;-79
2023/04/09 08:14:11;;;;;;;31.42;28.45;;;;;;;7.74;77.29;101005.13;10540673;28;20054;-80
2023/04/09 08:19:14;;;;;;;24.25;22.27;;;;;;;8.24;70.86;100995.25;10541633;28;20066;-79
2023/04/09 08:24:17;;;;;;;25.50;23.13;;;;;;;8.46;69.35;100982.91;10555868;28;20134;-80
2023/04/09 08:29:19;;;;;;;25.42;23.42;;;;;;;8.71;68.87;100984.41;10555296;28;20047;-79
2023/04/09 08:34:21;;;;;;;24.77;22.60;;;;;;;8.09;71.59;100989.22;10537293;28;20071;-79
2023/04/09 08:39:22;;;;;;;25.35;23.25;;;;;;;8.63;68.94;101001.09;10514536;28;20052;-80
2023/04/09 08:44:28;;;;;;;25.85;23.75;;;;;;;9.22;67.54;101008.41;10515222;28;20039;-80
2023/04/09 08:49:30;;;;;;;24.58;22.63;;;;;;;9.13;64.30;101007.63;10499146;28;20049;-80
2023/04/09 08:54:32;;;;;;;25.30;23.30;;;;;;;9.25;65.75;101012.72;10513100;28;20044;-80
2023/04/09 08:59:36;;;;;;;25.83;23.63;;;;;;;9.39;65.48;101004.75;10517981;28;20087;-79
2023/04/09 09:04:49;;;;;;;25.05;23.08;;;;;;;9.23;65.54;100998.78;10522259;28;20071;-80
2023/04/09 09:10:04;;;;;;;18.63;17.15;;;;;;;10.08;61.60;101002.94;10520811;28;20136;-79
2023/04/09 09:15:31;;;;;;;29.20;26.75;;;;;;;10.99;58.49;100993.66;10519572;28;20139;-79
2023/04/09 09:20:33;;;;;;;28.17;26.17;;;;;;;11.18;60.46;101002.91;10501143;28;20100;-79
2023/04/09 09:25:42;;;;;;;29.88;27.27;;;;;;;11.74;58.56;101002.69;10512113;28;20059;-79
2023/04/09 09:30:45;;;;;;;28.02;25.73;;;;;;;11.80;57.63;101007.81;10535393;28;20048;-80
2023/04/09 09:35:53;;;;;;;29.63;27.25;;;;;;;11.85;57.96;100998.94;10514317;28;20041;-80
2023/04/09 09:40:55;;;;;;;29.25;26.80;;;;;;;12.32;56.53;100991.75;10515794;28;20387;-78
2023/04/09 09:45:57;;;;;;;28.98;26.80;;;;;;;12.19;55.62;100992.94;10514058;28;20040;-79
2023/04/09 09:51:02;;;;;;;27.95;25.95;;;;;;;11.53;57.82;100983.81;10514819;28;20071;-79
2023/04/09 09:56:05;;;;;;;29.17;26.90;;;;;;;11.93;56.33;100987.38;10516011;28;20121;-80
2023/04/09 10:01:10;;;;;;;28.38;26.27;;;;;;;11.87;56.64;100985.75;10533146;28;20086;-79
2023/04/09 10:06:13;;;;;;;26.67;24.70;;;;;;;11.98;57.63;100975.84;10511255;28;20048;-80
2023/04/09 10:11:15;;;;;;;27.50;25.40;;;;;;;11.96;56.47;100967.13;10505974;28;20049;-78
2023/04/09 10:16:21;;;;;;;25.98;23.98;;;;;;;11.85;57.21;100961.22;10531419;28;20033;-79
2023/04/09 10:21:34;;;;;;;26.85;24.60;;;;;;;12.33;54.56;100963.63;10516110;28;20070;-79
2023/04/09 10:26:40;;;;;;;28.27;25.75;;;;;;;12.13;55.55;100958.81;10508971;28;20080;-79
2023/04/09 10:31:48;;;;;;;29.02;26.27;;;;;;;12.27;55.65;100958.50;10515677;28;20139;-81
2023/04/09 10:36:54;;;;;;;26.55;24.35;;;;;;;12.29;54.37;100954.03;10509911;28;20036;-79
2023/04/09 10:41:57;;;;;;;24.30;22.60;;;;;;;12.32;54.24;100959.25;10507206;28;20498;-78
2023/04/09 10:46:59;;;;;;;29.80;27.15;;;;;;;12.17;55.46;100935.88;10518070;22;20075;-73
2023/04/09 10:52:09;;;;;;;24.40;22.60;;;;;;;11.81;56.66;100941.06;10503494;28;20048;-72
2023/04/09 10:57:15;;;;;;;25.52;23.73;;;;;;;11.88;57.38;100933.94;10501236;28;20048;-72
2023/04/09 11:02:37;;;;;;;26.35;24.55;;;;;;;11.74;58.31;100927.19;10501906;28;20040;-71
2023/04/09 11:07:43;;;;;;;26.65;24.65;;;;;;;11.85;59.01;100926.97;10485747;28;20095;-71
2023/04/09 11:12:47;;;;;;;27.75;25.52;;;;;;;11.83;57.84;100926.13;10503450;28;20043;-72
2023/04/09 11:17:49;;;;;;;25.08;23.38;;;;;;;12.38;56.17;100925.66;10502039;28;20060;-72
2023/04/09 11:22:53;;;;;;;26.20;24.35;;;;;;;12.20;55.01;100925.28;10500729;28;20405;-71
2023/04/09 11:27:55;;;;;;;27.88;25.58;;;;;;;12.62;55.33;100923.34;10500760;28;20043;-71
2023/04/09 11:32:56;;;;;;;25.85;23.95;;;;;;;13.02;54.27;100920.50;10484683;28;20044;-71
2023/04/09 11:37:58;;;;;;;26.33;24.48;;;;;;;12.97;53.99;100927.69;10502442;28;20127;-72
2023/04/09 11:43:01;;;;;;;25.55;23.67;;;;;;;13.66;52.73;100919.56;10500293;28;20131;-72
2023/04/09 11:48:03;;;;;;;24.98;23.08;;;;;;;12.87;52.09;100919.13;10500840;28;20045;-71
2023/04/09 11:53:16;;;;;;;26.02;24.23;;;;;;;12.19;55.47;100924.41;10483268;28;20053;-71
2023/04/09 11:58:22;;;;;;;25.80;24.00;;;;;;;12.81;54.82;100916.66;10501652;28;20032;-71
2023/04/09 12:03:29;;;;;;;25.90;24.07;;;;;;;12.81;53.74;100913.16;10501311;28;20505;-71
2023/04/09 12:08:36;;;;;;;25.13;23.42;;;;;;;12.70;53.99;100913.44;10500822;28;20394;-71
2023/04/09 12:13:44;;;;;;;24.90;23.17;;;;;;;13.23;54.34;100915.53;10500474;28;20049;-71
2023/04/09 12:18:46;;;;;;;24.52;22.88;;;;;;;13.14;51.57;100922.75;10500217;28;20340;-71
2023/04/09 12:23:48;;;;;;;22.50;21.00;;;;;;;13.65;51.25;100921.34;10482867;28;20561;-71
2023/04/09 12:28:50;;;;;;;22.33;20.70;;;;;;;13.27;51.82;100917.19;10502136;28;20044;-72
2023/04/09 12:33:52;;;;;;;22.08;20.58;;;;;;;12.83;51.88;100922.75;10500457;28;20441;-70
2023/04/09 12:38:54;;;;;;;23.63;22.05;;;;;;;12.96;53.60;100918.00;10502454;28;20497;-72
2023/04/09 12:43:56;;;;;;;24.45;22.85;;;;;;;13.21;50.92;100914.69;10483863;28;20040;-71
2023/04/09 12:48:58;;;;;;;24.20;22.52;;;;;;;12.92;52.49;100910.22;10500462;28;20055;-72
2023/04/09 12:54:02;;;;;;;22.40;20.90;;;;;;;12.80;53.66;100904.38;10500539;28;20044;-71
2023/04/09 12:59:05;;;;;;;25.77;23.98;;;;;;;12.82;53.21;100904.31;10500363;28;20053;-71
2023/04/09 13:04:06;;;;;;;22.25;20.73;;;;;;;12.94;54.75;100898.72;10500116;28;20033;-71
2023/04/09 13:09:08;;;;;;;20.55;19.15;;;;;;;13.21;50.61;100899.72;10500278;28;20051;-71
2023/04/09 13:14:12;;;;;;;22.05;20.55;;;;;;;13.23;51.09;100897.06;10483194;28;20037;-72
2023/04/09 13:19:14;;;;;;;21.95;20.40;;;;;;;12.96;51.78;100888.97;10500985;28;20048;-71
2023/04/09 13:24:16;;;;;;;21.85;20.13;;;;;;;13.16;50.72;100884.94;10499239;28;20347;-71
2023/04/09 13:29:17;;;;;;;20.25;18.95;;;;;;;13.11;50.34;100883.28;10499188;28;20049;-71
2023/04/09 13:34:19;;;;;;;21.50;20.10;;;;;;;13.22;49.60;100875.06;10498631;28;20505;-71
2023/04/09 13:39:21;;;;;;;21.25;19.75;;;;;;;13.20;48.94;100871.59;10498863;28;20516;-72
2023/04/09 13:44:26;;;;;;;20.35;18.95;;;;;;;13.39;48.99;100871.94;10500650;28;20510;-72
2023/04/09 13:49:29;;;;;;;17.90;16.70;;;;;;;13.52;47.67;100869.78;10487555;28;20131;-71
2023/04/09 13:54:32;;;;;;;19.90;18.52;;;;;;;13.27;48.16;100859.09;10505787;28;20036;-70
2023/04/09 13:59:34;;;;;;;20.13;18.83;;;;;;;12.98;47.77;100857.28;10506143;28;20451;-71
2023/04/09 14:04:36;;;;;;;20.20;18.80;;;;;;;12.87;48.39;100857.56;10505135;28;20044;-71
2023/04/09 14:09:37;;;;;;;18.60;17.30;;;;;;;12.77;48.23;100845.56;10485626;28;20048;-70
2023/04/09 14:14:39;;;;;;;18.63;17.33;;;;;;;13.02;47.84;100854.50;10503498;28;20047;-72
2023/04/09 14:19:41;;;;;;;17.65;16.50;;;;;;;12.90;47.68;100846.06;10503873;28;20082;-73
2023/04/09 14:24:43;;;;;;;15.80;14.70;;;;;;;12.98;47.25;100839.66;10486205;28;20482;-73
2023/04/09 14:29:45;;;;;;;16.88;15.77;;;;;;;13.08;46.08;100841.13;10504674;28;20060;-70
2023/04/09 14:34:46;;;;;;;16.58;15.43;;;;;;;12.96;46.40;100833.56;10503905;28;20064;-70
2023/04/09 14:39:48;;;;;;;17.20;16.00;;;;;;;12.88;47.16;100836.44;10486075;28;20151;-71
2023/04/09 14:44:50;;;;;;;16.55;15.35;;;;;;;12.97;48.00;100835.31;10486689;28;20048;-71
2023/04/09 14:49:52;;;;;;;16.98;15.68;;;;;;;12.71;48.65;100838.69;10502532;28;20067;-71
2023/04/09 14:54:54;;;;;;;15.18;14.07;;;;;;;12.56;49.28;100833.81;10483446;28;20055;-71
2023/04/09 14:59:55;;;;;;;14.70;13.63;;;;;;;12.49;48.13;100829.63;10504085;28;20040;-71
2023/04/09 15:04:57;;;;;;;13.68;12.68;;;;;;;12.72;47.33;100832.50;10502534;28;20041;-72
2023/04/09 15:09:59;;;;;;;14.18;13.25;;;;;;;12.63;46.55;100820.41;10502722;28;20102;-70
2023/04/09 15:15:05;;;;;;;12.23;11.43;;;;;;;12.42;46.71;100826.28;10502514;28;20043;-71
2023/04/09 15:20:07;;;;;;;12.17;11.27;;;;;;;12.40;46.45;100816.69;10501170;28;20488;-71
2023/04/09 15:25:09;;;;;;;10.70;9.90;;;;;;;12.42;46.30;100821.00;10501426;28;20071;-71
2023/04/09 15:30:14;;;;;;;9.48;8.85;;;;;;;12.49;45.43;100817.31;10501623;28;20080;-72
2023/04/09 15:35:22;;;;;;;10.63;9.82;;;;;;;12.65;44.97;100817.72;10500902;28;20036;-72
2023/04/09 15:40:24;;;;;;;14.90;13.80;;;;;;;12.55;46.58;100811.84;10501692;28;20044;-72
2023/04/09 15:45:26;;;;;;;12.15;11.32;;;;;;;12.33;47.41;100813.34;10500630;28;20045;-71
2023/04/09 15:50:28;;;;;;;13.02;12.13;;;;;;;12.37;47.94;100812.34;10500288;28;20047;-72
2023/04/09 15:55:30;;;;;;;17.25;16.05;;;;;;;12.20;49.48;100818.06;10465523;28;20045;-71
2023/04/09 16:00:32;;;;;;;14.98;13.88;;;;;;;11.98;50.25;100814.25;10499584;28;20074;-72
2023/04/09 16:05:34;;;;;;;14.57;13.57;;;;;;;12.04;50.33;100811.44;10499863;28;20406;-72
2023/04/09 16:10:36;;;;;;;13.13;12.13;;;;;;;12.17;48.84;100814.63;10500663;28;20051;-72
2023/04/09 16:15:38;;;;;;;12.75;11.85;;;;;;;12.19;48.35;100812.84;10500618;28;20098;-71
2023/04/09 16:20:40;;;;;;;13.40;12.40;;;;;;;12.16;49.45;100812.91;10482577;28;20040;-71
2023/04/09 16:25:41;;;;;;;14.77;13.77;;;;;;;12.20;50.69;100814.56;10499373;28;20401;-71
2023/04/09 16:30:43;;;;;;;15.23;14.02;;;;;;;11.81;51.99;100812.00;10500169;28;20566;-73
2023/04/09 16:35:45;;;;;;;16.25;15.02;;;;;;;11.73;52.53;100821.84;10502522;28;20490;-69
2023/04/09 16:40:47;;;;;;;16.58;15.20;;;;;;;11.61;53.35;100813.34;10500818;28;20124;-70
2023/04/09 16:45:49;;;;;;;17.98;16.58;;;;;;;11.80;52.76;100819.03;10499208;28;20037;-69
2023/04/09 16:50:50;;;;;;;17.45;16.17;;;;;;;11.87;53.56;100819.78;10512273;22;20048;-74
2023/04/09 16:55:52;;;;;;;17.48;16.08;;;;;;;11.60;54.41;100816.03;10497731;28;20043;-74
2023/04/09 17:00:54;;;;;;;16.98;15.77;;;;;;;11.42;55.33;100819.06;10498529;28;20110;-73
2023/04/09 17:05:56;;;;;;;18.25;16.95;;;;;;;11.33;56.14;100814.88;10479484;28;20448;-75
2023/04/09 17:11:01;;;;;;;17.25;15.95;;;;;;;11.23;56.18;100829.13;10497484;28;20490;-73
2023/04/09 17:16:03;;;;;;;16.92;15.63;;;;;;;11.16;55.95;100827.56;10479371;28;20036;-73
2023/04/09 17:21:05;;;;;;;19.13;17.80;;;;;;;10.97;56.85;100830.53;10484372;28;20040;-73
2023/04/09 17:26:07;;;;;;;17.88;16.67;;;;;;;10.93;57.11;100833.28;10503879;28;20139;-75
2023/04/09 17:31:14;;;;;;;19.13;17.77;;;;;;;10.88;57.00;100832.50;10486528;28;20040;-75
2023/04/09 17:36:18;;;;;;;16.75;15.55;;;;;;;10.85;57.45;100831.69;10503902;28;20063;-73
2023/04/09 17:41:20;;;;;;;18.38;16.92;;;;;;;10.68;58.16;100833.78;10504015;28;20053;-73
2023/04/09 17:46:22;;;;;;;17.63;16.42;;;;;;;10.68;58.56;100827.66;10503448;28;20072;-72
2023/04/09 17:51:25;;;;;;;18.20;16.65;;;;;;;10.54;59.19;100828.78;10503897;28;20459;-73
2023/04/09 17:56:27;;;;;;;17.67;16.42;;;;;;;10.44;62.03;100835.09;10504721;28;20041;-74
2023/04/09 18:01:28;;;;;;;18.65;17.15;;;;;;;10.30;65.52;100840.59;10504171;28;20123;-73
2023/04/09 18:06:30;;;;;;;19.92;18.42;;;;;;;10.02;67.19;100840.19;10504386;28;20036;-73
2023/04/09 18:11:32;;;;;;;20.15;18.65;;;;;;;9.85;68.90;100837.81;10503758;28;20050;-73
2023/04/09 18:16:38;;;;;;;26.92;24.67;;;;;;;9.81;70.39;100838.75;10503672;28;20070;-74
2023/04/09 18:21:40;;;;;;;31.75;28.75;;;;;;;9.92;68.68;100838.63;10504615;28;20047;-74
2023/04/09 18:26:42;;;;;;;27.98;25.42;;;;;;;9.89;68.52;100846.53;10485718;28;20046;-73
2023/04/09 18:31:44;;;;;;;25.10;23.10;;;;;;;9.70;68.94;100852.97;10503459;28;20457;-73
2023/04/09 18:36:47;;;;;;;24.58;22.77;;;;;;;9.65;68.95;100854.78;10485598;28;20051;-74
2023/04/09 18:41:49;;;;;;;25.27;23.33;;;;;;;9.61;70.81;100861.84;10486190;28;20052;-74
2023/04/09 18:46:51;;;;;;;24.73;22.92;;;;;;;9.43;72.08;100864.69;10485240;28;20413;-74
2023/04/09 18:51:53;;;;;;;24.15;22.35;;;;;;;9.25;73.17;100869.34;10485235;28;20051;-74
2023/04/09 18:56:56;;;;;;;28.08;25.48;;;;;;;9.22;74.19;100876.38;10503296;28;20073;-74
2023/04/09 19:01:58;;;;;;;26.58;24.45;;;;;;;9.21;75.24;100872.00;10503107;28;20044;-74
2023/04/09 19:07:00;;;;;;;26.83;24.67;;;;;;;9.18;75.20;100864.19;10502159;28;20043;-74
2023/04/09 19:12:02;;;;;;;27.92;25.52;;;;;;;9.08;75.68;100866.06;10484460;28;20052;-73
2023/04/09 19:17:04;;;;;;;30.83;27.73;;;;;;;8.92;75.84;100867.13;10502471;28;20520;-74
2023/04/09 19:22:06;;;;;;;30.42;27.13;;;;;;;8.79;76.15;100864.63;10503304;28;20041;-74
2023/04/09 19:27:08;;;;;;;28.98;26.25;;;;;;;8.42;77.18;100863.28;10501845;28;20082;-74
2023/04/09 19:32:12;;;;;;;26.45;24.13;;;;;;;8.25;77.56;100860.78;10502235;28;20485;-74
2023/04/09 19:37:15;;;;;;;32.75;29.35;;;;;;;8.63;78.54;100870.06;10483039;28;20107;-74
2023/04/09 19:42:16;;;;;;;50.05;35.65;;;;;;;8.34;78.90;100871.19;10499729;28;20049;-75
2023/04/09 19:47:18;;;;;;;44.15;34.78;;;;;;;8.16;79.62;100866.13;10481741;28;20569;-74
2023/04/09 19:52:20;;;;;;;48.17;36.53;;;;;;;7.84;80.96;100862.88;10500035;28;20066;-73
2023/04/09 19:57:22;;;;;;;42.03;35.65;;;;;;;7.87;81.70;100864.59;10500015;28;20486;-74
2023/04/09 20:02:24;;;;;;;39.50;35.05;;;;;;;7.78;81.25;100867.28;10500293;28;20055;-73
2023/04/09 20:07:26;;;;;;;42.13;34.55;;;;;;;7.77;81.77;100868.16;10499720;28;20102;-74
2023/04/09 20:12:28;;;;;;;42.42;35.47;;;;;;;7.74;81.64;100870.78;10499782;28;20040;-74
2023/04/09 20:17:30;;;;;;;46.03;35.90;;;;;;;7.80;80.53;100876.88;10499272;28;20489;-74
2023/04/09 20:22:33;;;;;;;47.25;36.53;;;;;;;7.81;80.66;100881.22;10481735;28;20086;-73
2023/04/09 20:27:36;;;;;;;43.95;36.22;;;;;;;7.63;81.33;100872.63;10499049;28;20051;-74
2023/04/09 20:32:38;;;;;;;41.05;34.95;;;;;;;7.44;82.63;100875.34;10498547;28;20052;-74
2023/04/09 20:37:40;;;;;;;47.08;35.63;;;;;;;7.36;83.77;100869.28;10481241;28;20070;-74
2023/04/09 20:42:42;;;;;;;39.25;33.45;;;;;;;7.41;83.46;100877.97;10498926;28;20064;-74
2023/04/09 20:47:44;;;;;;;40.47;33.72;;;;;;;7.24;84.63;100866.72;10499040;28;20485;-73
2023/04/09 20:52:46;;;;;;;39.92;33.78;;;;;;;7.18;85.13;100864.16;10480299;28;20055;-74
2023/04/09 20:57:48;;;;;;;40.50;34.97;;;;;;;7.12;86.29;100861.53;10488201;28;20045;-73
2023/04/09 21:02:50;;;;;;;45.40;36.70;;;;;;;7.28;86.23;100873.69;10506561;28;20055;-73
2023/04/09 21:07:52;;;;;;;40.22;34.90;;;;;;;6.92;88.07;100870.34;10488775;28;20052;-73
2023/04/09 21:12:54;;;;;;;46.42;37.47;;;;;;;7.07;86.74;100872.88;10487897;28;20568;-72
2023/04/09 21:17:55;;;;;;;40.85;35.80;;;;;;;6.79;87.00;100871.25;10488436;28;20036;-74
2023/04/09 21:22:57;;;;;;;46.58;36.45;;;;;;;6.75;87.69;100867.78;10505661;28;20115;-74
2023/04/09 21:27:59;;;;;;;48.83;36.97;;;;;;;6.81;88.46;100879.94;10487949;28;20044;-73
2023/04/09 21:33:05;;;;;;;47.40;37.47;;;;;;;6.74;87.68;100889.56;10505047;28;20044;-73
2023/04/09 21:38:07;;;;;;;53.47;39.63;;;;;;;6.88;87.08;100886.91;10505324;28;20044;-73
2023/04/09 21:43:09;;;;;;;48.15;37.70;;;;;;;6.76;86.59;100881.72;10504761;28;20111;-73
2023/04/09 21:48:11;;;;;;;48.33;38.80;;;;;;;6.80;87.62;100880.84;10504748;28;20044;-73
2023/04/09 21:53:14;;;;;;;38.88;34.65;;;;;;;6.68;88.98;100883.47;10486803;28;20139;-73
2023/04/09 21:58:15;;;;;;;37.13;33.05;;;;;;;6.65;89.38;100880.88;10486647;28;20485;-73
2023/04/09 22:03:17;;;;;;;46.47;35.30;;;;;;;6.76;88.93;100884.31;10486046;28;20057;-73
2023/04/09 22:08:19;;;;;;;39.58;34.08;;;;;;;6.74;88.74;100876.50;10485729;28;20051;-73
2023/04/09 22:13:21;;;;;;;41.67;36.28;;;;;;;6.74;88.69;100879.13;10486357;28;20422;-74
2023/04/09 22:18:23;;;;;;;44.47;36.85;;;;;;;6.69;88.92;100875.66;10487019;28;20494;-73
2023/04/09 22:23:24;;;;;;;48.88;37.83;;;;;;;6.62;89.01;100873.03;10503368;28;20071;-72
2023/04/09 22:28:28;;;;;;;48.30;37.97;;;;;;;6.58;89.21;100880.88;10503346;28;20043;-74
2023/04/09 22:33:32;;;;;;;39.47;35.35;;;;;;;6.66;89.50;100880.88;10503228;28;20467;-72
2023/04/09 22:38:34;;;;;;;48.15;35.45;;;;;;;6.49;89.49;100880.91;10503037;28;20040;-73
2023/04/09 22:43:36;;;;;;;38.63;32.70;;;;;;;6.15;90.52;100879.19;10483799;28;20140;-72
2023/04/09 22:48:39;;;;;;;36.92;33.08;;;;;;;6.05;91.31;100880.94;10514274;22;20116;-71